sensor_id;sensor_type;location;lat;lon;timestamp;temperature;humidity
54824;DHT22;40724;53.196;5.980;2023-08-30T08:29:48;19.70;95.10
54824;DHT22;40724;53.196;5.980;2023-08-30T14:01:33;18.00;97.10
54824;DHT22;40724;53.196;5.980;2023-08-30T14:04:02;18.90;99.10
54824;DHT22;40724;53.196;5.980;2023-08-30T14:13:50;18.90;99.10
54824;DHT22;40724;53.196;5.980;2023-08-30T15:02:50;19.10;99.10
54824;DHT22;40724;53.196;5.980;2023-08-30T15:05:17;20.00;99.30
54824;DHT22;40724;53.196;5.980;2023-08-30T15:07:42;20.10;99.30
54824;DHT22;40724;53.196;5.980;2023-08-30T17:29:13;20.10;99.40
54824;DHT22;40724;53.196;5.980;2023-08-30T17:31:43;20.30;95.90
54824;DHT22;40724;53.196;5.980;2023-08-30T17:34:09;20.20;95.90
54824;DHT22;40724;53.196;5.980;2023-08-30T17:36:35;20.20;95.90
54824;DHT22;40724;53.196;5.980;2023-08-30T17:39:00;20.20;95.90
54824;DHT22;40724;53.196;5.980;2023-08-30T17:41:26;20.20;95.90
54824;DHT22;40724;53.196;5.980;2023-08-30T17:43:52;20.10;95.90
54824;DHT22;40724;53.196;5.980;2023-08-30T17:46:18;20.10;95.90
54824;DHT22;40724;53.196;5.980;2023-08-30T17:48:49;20.00;95.80
54824;DHT22;40724;53.196;5.980;2023-08-30T17:51:15;20.00;95.90
54824;DHT22;40724;53.196;5.980;2023-08-30T18:18:14;20.00;95.90
54824;DHT22;40724;53.196;5.980;2023-08-30T18:20:40;19.50;95.90
54824;DHT22;40724;53.196;5.980;2023-08-30T18:23:05;19.50;95.90
54824;DHT22;40724;53.196;5.980;2023-08-30T18:25:31;19.40;95.90
54824;DHT22;40724;53.196;5.980;2023-08-30T18:27:58;19.30;95.80
54824;DHT22;40724;53.196;5.980;2023-08-30T18:30:24;19.30;95.80
54824;DHT22;40724;53.196;5.980;2023-08-30T18:32:49;19.30;95.80
54824;DHT22;40724;53.196;5.980;2023-08-30T18:35:17;19.20;95.80
54824;DHT22;40724;53.196;5.980;2023-08-30T18:37:42;19.20;95.80
54824;DHT22;40724;53.196;5.980;2023-08-30T18:40:09;19.20;95.80
54824;DHT22;40724;53.196;5.980;2023-08-30T19:04:34;19.10;95.80
54824;DHT22;40724;53.196;5.980;2023-08-30T19:07:00;18.80;95.70
54824;DHT22;40724;53.196;5.980;2023-08-30T19:09:26;18.70;95.80
54824;DHT22;40724;53.196;5.980;2023-08-30T19:11:53;18.70;95.80
54824;DHT22;40724;53.196;5.980;2023-08-30T19:14:19;18.70;95.80
54824;DHT22;40724;53.196;5.980;2023-08-30T19:16:44;18.60;95.90
54824;DHT22;40724;53.196;5.980;2023-08-30T19:19:10;18.60;95.90
54824;DHT22;40724;53.196;5.980;2023-08-30T19:21:36;18.60;95.90
54824;DHT22;40724;53.196;5.980;2023-08-30T19:24:03;18.60;96.00
54824;DHT22;40724;53.196;5.980;2023-08-30T19:26:30;18.50;96.00
54824;DHT22;40724;53.196;5.980;2023-08-30T19:28:56;18.50;96.00
54824;DHT22;40724;53.196;5.980;2023-08-30T19:31:22;18.50;96.00
54824;DHT22;40724;53.196;5.980;2023-08-30T19:33:47;18.50;96.10
54824;DHT22;40724;53.196;5.980;2023-08-30T19:36:13;18.40;96.10
54824;DHT22;40724;53.196;5.980;2023-08-30T19:38:44;18.40;96.10
54824;DHT22;40724;53.196;5.980;2023-08-30T19:41:09;18.40;96.10
54824;DHT22;40724;53.196;5.980;2023-08-30T19:43:35;18.40;96.10
54824;DHT22;40724;53.196;5.980;2023-08-30T19:46:03;18.40;96.10
